createdAt,value
2019-03-23T00:00:43.965Z,101661.42
2019-03-23T00:03:18.934Z,101652.77
2019-03-23T00:05:52.885Z,101658.73
2019-03-23T00:08:27.104Z,101649.22
2019-03-23T00:11:03.556Z,101635.83
2019-03-23T00:13:37.015Z,101642.73
2019-03-23T00:16:10.865Z,101642.28
2019-03-23T00:18:43.935Z,101640.14
2019-03-23T00:21:17.211Z,101641.80
2019-03-23T00:23:50.156Z,101629.74
2019-03-23T00:26:23.335Z,101630.11
2019-03-23T00:28:56.566Z,101619.35
2019-03-23T00:31:29.666Z,101620.64
2019-03-23T00:34:03.908Z,101611.97
2019-03-23T00:36:41.512Z,101615.88
2019-03-23T00:39:11.898Z,101611.61
2019-03-23T00:41:47.256Z,101605.52
2019-03-23T00:44:20.235Z,101602.46
2019-03-23T00:46:53.775Z,101601.50
2019-03-23T00:49:32.197Z,101592.84
2019-03-23T00:52:06.705Z,101595.89
2019-03-23T00:54:39.735Z,101596.70
2019-03-23T00:57:12.948Z,101597.47
2019-03-23T00:59:47.005Z,101597.03
2019-03-23T01:02:20.185Z,101590.98
2019-03-23T01:04:54.093Z,101594.45
2019-03-23T01:07:27.114Z,101587.12
2019-03-23T01:10:00.345Z,101587.92
2019-03-23T01:12:33.605Z,101582.65
2019-03-23T01:15:07.615Z,101587.28
2019-03-23T01:17:40.850Z,101576.00
2019-03-23T01:20:14.545Z,101570.36
2019-03-23T01:22:47.435Z,101568.11
2019-03-23T01:25:21.555Z,101568.55
2019-03-23T01:27:54.905Z,101568.98
2019-03-23T01:30:28.325Z,101576.64
2019-03-23T01:33:01.505Z,101574.83
2019-03-23T01:35:35.153Z,101572.25
2019-03-23T01:38:08.270Z,101564.92
2019-03-23T01:40:41.745Z,101569.14
2019-03-23T01:43:15.445Z,101572.05
2019-03-23T01:45:48.489Z,101577.11
2019-03-23T01:48:21.685Z,101585.65
2019-03-23T01:50:55.428Z,101582.14
2019-03-23T01:53:29.555Z,101583.91
2019-03-23T01:56:05.345Z,101589.03
2019-03-23T01:58:39.908Z,101590.77
2019-03-23T02:01:13.465Z,101606.71
2019-03-23T02:03:46.905Z,101601.48
2019-03-23T02:06:20.862Z,101595.52
2019-03-23T02:08:54.045Z,101587.88
2019-03-23T02:11:27.014Z,101587.11
2019-03-23T02:14:00.396Z,101578.98
2019-03-23T02:16:33.454Z,101582.25
2019-03-23T02:19:06.955Z,101575.84
2019-03-23T02:21:40.689Z,101574.52
2019-03-23T02:24:16.485Z,101584.46
2019-03-23T02:26:50.425Z,101583.21
2019-03-23T02:29:23.955Z,101576.28
2019-03-23T02:31:58.054Z,101584.91
2019-03-23T02:34:32.820Z,101582.33
2019-03-23T02:37:06.115Z,101581.64
2019-03-23T02:39:39.324Z,101573.50
2019-03-23T02:42:12.235Z,101577.73
2019-03-23T02:44:45.293Z,101568.98
2019-03-23T02:47:19.859Z,101561.17
2019-03-23T02:49:54.485Z,101558.92
2019-03-23T02:52:28.101Z,101550.34
2019-03-23T02:55:01.415Z,101545.27
2019-03-23T02:58:04.526Z,101550.50
2019-03-23T03:00:46.386Z,101544.90
2019-03-23T03:03:19.556Z,101544.42
2019-03-23T03:05:54.898Z,101544.42
2019-03-23T03:08:28.425Z,101543.81
2019-03-23T03:11:02.785Z,101540.50
2019-03-23T03:13:36.205Z,101543.00
2019-03-23T03:16:09.496Z,101536.55
2019-03-23T03:18:42.925Z,101535.10
2019-03-23T03:21:16.198Z,101545.64
2019-03-23T03:23:49.474Z,101549.02
2019-03-23T03:26:22.786Z,101552.30
2019-03-23T03:28:55.935Z,101547.34
2019-03-23T03:31:29.395Z,101538.63
2019-03-23T03:34:02.597Z,101536.91
2019-03-23T03:36:35.745Z,101535.20
2019-03-23T03:39:10.057Z,101532.10
2019-03-23T03:41:44.260Z,101529.84
2019-03-23T03:44:17.467Z,101525.89
2019-03-23T03:46:50.535Z,101531.44
2019-03-23T03:49:24.116Z,101520.78
2019-03-23T03:51:57.240Z,101522.65
2019-03-23T03:54:30.246Z,101517.98
2019-03-23T03:57:03.380Z,101523.58
2019-03-23T03:59:36.507Z,101531.30
2019-03-23T04:02:10.096Z,101533.04
2019-03-23T04:04:43.170Z,101529.09
2019-03-23T04:07:16.778Z,101523.49
2019-03-23T04:09:51.374Z,101527.40
2019-03-23T04:12:24.857Z,101516.97
2019-03-23T04:14:58.064Z,101516.92
2019-03-23T04:17:32.803Z,101521.14
2019-03-23T04:20:06.560Z,101513.32
2019-03-23T04:22:40.156Z,101517.05
2019-03-23T04:25:13.435Z,101517.84
2019-03-23T04:27:46.778Z,101516.12
2019-03-23T04:30:19.973Z,101524.73
2019-03-23T04:32:53.245Z,101520.82
2019-03-23T04:35:26.508Z,101520.28
2019-03-23T04:38:00.185Z,101519.34
2019-03-23T04:40:33.384Z,101527.42
2019-03-23T04:43:07.364Z,101523.16
2019-03-23T04:45:42.145Z,101515.04
2019-03-23T04:48:15.526Z,101524.45
2019-03-23T04:50:48.724Z,101526.62
2019-03-23T04:53:21.905Z,101522.27
2019-03-23T04:55:55.244Z,101530.74
2019-03-23T04:58:28.355Z,101527.73
2019-03-23T05:01:04.318Z,101533.27
2019-03-23T05:03:37.515Z,101535.89
2019-03-23T05:06:10.795Z,101542.33
2019-03-23T05:08:43.975Z,101536.03
2019-03-23T05:11:17.514Z,101524.10
2019-03-23T05:13:51.035Z,101520.56
2019-03-23T05:16:24.285Z,101525.93
2019-03-23T05:18:57.515Z,101527.84
2019-03-23T05:21:30.950Z,101531.89
2019-03-23T05:24:04.063Z,101519.05
2019-03-23T05:26:37.625Z,101517.89
2019-03-23T05:29:10.778Z,101516.73
2019-03-23T05:31:44.646Z,101517.30
2019-03-23T05:34:18.926Z,101518.31
2019-03-23T05:36:52.985Z,101518.44
2019-03-23T05:39:28.608Z,101515.45
2019-03-23T05:42:03.375Z,101516.83
2019-03-23T05:44:37.036Z,101516.51
2019-03-23T05:47:10.784Z,101520.05
2019-03-23T05:49:44.178Z,101521.86
2019-03-23T05:52:17.638Z,101520.33
2019-03-23T05:54:50.865Z,101524.39
2019-03-23T05:57:24.103Z,101524.63
2019-03-23T05:59:57.585Z,101529.64
2019-03-23T06:02:33.715Z,101523.89
2019-03-23T06:05:08.480Z,101527.67
2019-03-23T06:07:42.034Z,101526.28
2019-03-23T06:10:15.597Z,101522.77
2019-03-23T06:12:50.015Z,101533.53
2019-03-23T06:15:23.563Z,101528.75
2019-03-23T06:17:56.842Z,101529.47
2019-03-23T06:20:30.254Z,101528.08
2019-03-23T06:23:06.315Z,101527.42
2019-03-23T06:25:39.659Z,101520.38
2019-03-23T06:28:13.005Z,101522.30
2019-03-23T06:30:46.485Z,101522.95
2019-03-23T06:33:19.689Z,101516.73
2019-03-23T06:35:53.425Z,101516.94
2019-03-23T06:38:26.924Z,101513.77
2019-03-23T06:40:59.945Z,101521.66
2019-03-23T06:43:33.565Z,101521.84
2019-03-23T06:46:07.005Z,101523.67
2019-03-23T06:48:40.384Z,101517.70
2019-03-23T06:51:13.485Z,101518.68
2019-03-23T06:53:46.798Z,101510.51
2019-03-23T06:56:20.092Z,101510.99
2019-03-23T06:58:53.685Z,101503.22
2019-03-23T07:01:26.905Z,101493.25
2019-03-23T07:04:00.275Z,101497.55
2019-03-23T07:06:33.370Z,101494.00
2019-03-23T07:09:16.118Z,101485.66
2019-03-23T07:11:44.215Z,101482.87
2019-03-23T07:14:18.506Z,101484.84
2019-03-23T07:16:51.745Z,101493.75
2019-03-23T07:19:25.219Z,101483.02
2019-03-23T07:21:58.634Z,101487.13
2019-03-23T07:24:32.405Z,101488.53
2019-03-23T07:27:06.135Z,101479.39
2019-03-23T07:29:39.634Z,101481.27
2019-03-23T07:32:12.870Z,101481.52
2019-03-23T07:34:46.235Z,101481.55
2019-03-23T07:37:19.365Z,101478.63
2019-03-23T07:39:52.565Z,101480.15
2019-03-23T07:42:25.635Z,101482.55
2019-03-23T07:44:58.725Z,101477.27
2019-03-23T07:47:31.766Z,101471.00
2019-03-23T07:50:05.524Z,101479.10
2019-03-23T07:52:38.595Z,101472.61
2019-03-23T07:55:15.288Z,101470.97
2019-03-23T07:57:49.274Z,101464.70
2019-03-23T08:00:22.785Z,101459.63
2019-03-23T08:02:56.004Z,101457.23
2019-03-23T08:05:29.125Z,101453.55
2019-03-23T08:08:02.138Z,101456.79
2019-03-23T08:10:35.464Z,101456.61
2019-03-23T08:13:08.768Z,101454.92
2019-03-23T08:15:42.638Z,101451.58
2019-03-23T08:18:17.315Z,101444.95
2019-03-23T08:20:51.346Z,101446.94
2019-03-23T08:23:24.465Z,101442.56
2019-03-23T08:25:57.594Z,101436.04
2019-03-23T08:28:32.410Z,101442.75
2019-03-23T08:31:05.505Z,101444.13
2019-03-23T08:33:38.877Z,101444.92
2019-03-23T08:36:12.058Z,101441.91
2019-03-23T08:38:45.214Z,101441.55
2019-03-23T08:41:18.571Z,101444.98
2019-03-23T08:43:51.535Z,101431.89
2019-03-23T08:46:24.845Z,101427.70
2019-03-23T08:48:58.828Z,101427.98
2019-03-23T08:51:32.057Z,101423.08
2019-03-23T08:54:05.295Z,101417.77
2019-03-23T08:56:38.775Z,101410.34
2019-03-23T08:59:11.978Z,101404.30
2019-03-23T09:01:45.278Z,101403.61
2019-03-23T09:04:18.588Z,101395.42
2019-03-23T09:06:51.875Z,101408.80
2019-03-23T09:09:25.234Z,101396.20
2019-03-23T09:11:58.414Z,101393.92
2019-03-23T09:14:31.545Z,101387.76
2019-03-23T09:17:04.745Z,101389.57
2019-03-23T09:19:38.125Z,101385.69
2019-03-23T09:22:11.477Z,101382.03
2019-03-23T09:24:44.876Z,101375.32
2019-03-23T09:27:21.234Z,101374.73
2019-03-23T09:29:57.074Z,101371.41
2019-03-23T09:32:31.005Z,101364.44
2019-03-23T09:35:04.308Z,101365.63
2019-03-23T09:37:38.101Z,101364.33
2019-03-23T09:40:15.084Z,101354.72
2019-03-23T09:42:49.855Z,101352.81
2019-03-23T09:45:24.305Z,101352.78
2019-03-23T09:47:57.684Z,101358.98
2019-03-23T09:50:30.875Z,101350.72
2019-03-23T09:53:04.284Z,101344.17
2019-03-23T09:55:38.220Z,101335.58
2019-03-23T09:58:11.767Z,101334.63
2019-03-23T10:04:02.216Z,101329.37
2019-03-23T10:06:43.375Z,101334.20
2019-03-23T10:10:21.969Z,101326.47
2019-03-23T10:12:54.815Z,101319.72
2019-03-23T10:15:28.260Z,101317.90
2019-03-23T10:18:01.715Z,101311.42
2019-03-23T10:20:34.966Z,101310.48
2019-03-23T10:23:08.135Z,101308.72
2019-03-23T10:25:42.764Z,101304.31
2019-03-23T10:28:15.942Z,101306.17
2019-03-23T10:30:49.165Z,101297.75
2019-03-23T10:33:23.155Z,101295.00
2019-03-23T10:35:56.404Z,101298.97
2019-03-23T10:38:29.335Z,101297.13
2019-03-23T10:41:24.824Z,101297.39
2019-03-23T10:45:44.127Z,101295.62
2019-03-23T10:47:10.814Z,101275.39
2019-03-23T10:49:45.907Z,101283.86
2019-03-23T10:52:19.164Z,101277.26
2019-03-23T10:54:52.235Z,101273.93
2019-03-23T11:09:05.702Z,101258.32
2019-03-23T13:33:46.331Z,101053.06
2019-03-23T13:36:25.124Z,101046.38
2019-03-23T13:38:58.094Z,101033.40
2019-03-23T13:41:30.664Z,101030.00
2019-03-23T13:44:03.605Z,101016.49
2019-03-23T13:46:39.694Z,101009.69
2019-03-23T13:49:13.963Z,101006.83
2019-03-23T13:51:47.233Z,101002.36
2019-03-23T13:54:19.943Z,100999.42
2019-03-23T13:56:53.414Z,100996.94
2019-03-23T13:59:26.046Z,100995.17
2019-03-23T14:01:58.764Z,100991.16
2019-03-23T14:04:31.234Z,100989.35
2019-03-23T14:07:03.894Z,100982.18
2019-03-23T14:09:36.554Z,100980.34
2019-03-23T14:12:09.214Z,100978.80
2019-03-23T14:14:41.843Z,100976.52
2019-03-23T14:17:14.487Z,100974.22
2019-03-23T14:19:49.557Z,100984.06
2019-03-23T14:22:23.816Z,100972.63
2019-03-23T14:24:56.404Z,100977.10
2019-03-23T14:27:29.614Z,100971.69
2019-03-23T14:30:02.179Z,100963.22
2019-03-23T14:32:34.623Z,100962.52
2019-03-23T14:35:08.843Z,100964.90
2019-03-23T14:37:41.644Z,100961.30
2019-03-23T14:40:14.464Z,100962.61
2019-03-23T14:42:47.063Z,100957.94
2019-03-23T14:45:19.653Z,100957.36
2019-03-23T14:47:52.174Z,100950.39
2019-03-23T14:50:24.678Z,100947.47
2019-03-23T14:52:57.244Z,100945.78
2019-03-23T14:55:29.894Z,100940.96
2019-03-23T14:58:02.714Z,100945.45
2019-03-23T15:00:36.096Z,100942.37
2019-03-23T15:03:08.624Z,100939.81
2019-03-23T15:05:41.104Z,100935.98
2019-03-23T15:08:13.557Z,100928.12
2019-03-23T15:10:46.054Z,100927.10
2019-03-23T15:13:18.784Z,100925.77
2019-03-23T15:15:51.374Z,100921.11
2019-03-23T15:18:24.074Z,100923.70
2019-03-23T15:20:56.684Z,100919.89
2019-03-23T15:23:29.214Z,100913.39
2019-03-23T15:26:01.705Z,100911.56
2019-03-23T15:28:34.604Z,100909.62
2019-03-23T15:31:07.254Z,100897.30
2019-03-23T15:33:39.704Z,100903.28
2019-03-23T15:36:12.368Z,100899.95
2019-03-23T15:38:45.254Z,100892.60
2019-03-23T15:41:17.884Z,100888.80
2019-03-23T15:43:50.374Z,100888.02
2019-03-23T15:46:25.154Z,100895.39
2019-03-23T15:48:59.536Z,100886.13
2019-03-23T15:51:32.124Z,100883.44
2019-03-23T15:54:05.334Z,100881.41
2019-03-23T15:56:37.954Z,100882.19
2019-03-23T15:59:10.774Z,100884.77
2019-03-23T16:01:43.314Z,100884.70
2019-03-23T16:04:22.593Z,100880.83
2019-03-23T16:06:56.853Z,100870.84
2019-03-23T16:09:29.704Z,100884.48
2019-03-23T16:12:02.340Z,100877.46
2019-03-23T16:14:34.892Z,100874.40
2019-03-23T16:17:07.485Z,100882.59
2019-03-23T16:19:40.275Z,100873.48
2019-03-23T16:22:13.975Z,100872.42
2019-03-23T16:24:46.863Z,100865.88
2019-03-23T16:27:19.565Z,100859.94
2019-03-23T16:29:52.093Z,100861.69
2019-03-23T16:32:24.718Z,100861.42
2019-03-23T16:34:57.495Z,100859.06
2019-03-23T16:37:30.116Z,100860.07
2019-03-23T16:40:02.845Z,100862.09
2019-03-23T16:42:44.623Z,100863.80
2019-03-23T16:45:11.335Z,100862.17
2019-03-23T16:47:43.954Z,100861.52
2019-03-23T16:50:16.385Z,100861.11
2019-03-23T16:52:49.140Z,100865.95
2019-03-23T16:55:21.656Z,100866.71
2019-03-23T16:57:54.694Z,100867.20
2019-03-23T17:00:46.405Z,100865.37
2019-03-23T17:03:18.879Z,100866.29
2019-03-23T17:05:51.344Z,100858.80
2019-03-23T17:08:23.886Z,100857.36
2019-03-23T17:10:57.293Z,100862.14
2019-03-23T17:13:29.966Z,100860.76
2019-03-23T17:16:02.747Z,100859.20
2019-03-23T17:18:35.465Z,100859.41
2019-03-23T17:21:07.984Z,100856.80
2019-03-23T17:23:40.604Z,100863.83
2019-03-23T17:26:13.185Z,100858.58
2019-03-23T17:28:45.604Z,100858.58
2019-03-23T17:31:20.825Z,100854.20
2019-03-23T17:33:53.287Z,100849.53
2019-03-23T17:36:25.876Z,100854.39
2019-03-23T17:38:58.706Z,100858.95
2019-03-23T17:41:32.415Z,100856.36
2019-03-23T17:44:05.084Z,100853.31
2019-03-23T17:46:37.645Z,100852.80
2019-03-23T17:49:10.375Z,100848.78
2019-03-23T17:51:42.928Z,100850.53
2019-03-23T17:54:15.399Z,100842.66
2019-03-23T17:56:47.942Z,100845.18
2019-03-23T17:59:20.725Z,100841.47
2019-03-23T18:01:53.275Z,100841.92
2019-03-23T18:04:27.195Z,100839.63
2019-03-23T18:06:59.807Z,100844.20
2019-03-23T18:09:32.444Z,100845.37
2019-03-23T18:12:05.055Z,100841.80
2019-03-23T18:14:37.574Z,100843.50
2019-03-23T18:17:10.325Z,100847.70
2019-03-23T18:19:42.745Z,100842.13
2019-03-23T18:22:15.377Z,100843.75
2019-03-23T18:24:47.975Z,100842.66
2019-03-23T18:27:21.284Z,100843.83
2019-03-23T18:29:53.894Z,100842.70
2019-03-23T18:32:26.424Z,100841.47
2019-03-23T18:34:58.952Z,100847.28
2019-03-23T18:37:31.585Z,100846.52
2019-03-23T18:40:08.054Z,100848.72
2019-03-23T18:42:40.854Z,100841.88
2019-03-23T18:45:13.545Z,100839.73
2019-03-23T18:47:46.165Z,100842.75
2019-03-23T18:50:18.826Z,100846.17
2019-03-23T18:52:51.365Z,100849.36
2019-03-23T18:55:24.784Z,100846.05
2019-03-23T18:57:57.952Z,100843.20
2019-03-23T19:00:36.305Z,100848.56
2019-03-23T19:03:09.245Z,100846.48
2019-03-23T19:05:41.945Z,100845.38
2019-03-23T19:08:14.435Z,100848.55
2019-03-23T19:10:46.946Z,100837.41
2019-03-23T19:13:19.504Z,100836.83
2019-03-23T19:15:52.230Z,100830.98
2019-03-23T19:18:24.844Z,100830.42
2019-03-23T19:20:57.334Z,100837.25
2019-03-23T19:23:29.922Z,100834.35
2019-03-23T19:26:02.773Z,100833.59
2019-03-23T19:28:35.387Z,100838.88
2019-03-23T19:31:08.044Z,100832.09
2019-03-23T19:33:41.025Z,100830.31
2019-03-23T19:36:15.145Z,100832.06
2019-03-23T19:38:47.806Z,100824.31
2019-03-23T19:41:20.505Z,100834.30
2019-03-23T19:43:53.136Z,100826.95
2019-03-23T19:46:25.724Z,100830.48
2019-03-23T19:51:55.443Z,100808.58
2019-03-23T19:54:28.955Z,100824.27
2019-03-23T19:57:01.694Z,100820.41
2019-03-23T19:59:34.204Z,100809.64
2019-03-23T20:02:07.069Z,100815.23
2019-03-23T20:04:41.102Z,100810.51
2019-03-23T20:07:13.704Z,100808.39
2019-03-23T20:09:46.124Z,100813.17
2019-03-23T20:12:20.505Z,100817.63
2019-03-23T20:14:57.078Z,100815.11
2019-03-23T20:17:30.284Z,100809.37
2019-03-23T20:20:02.824Z,100803.23
2019-03-23T20:22:35.524Z,100813.29
2019-03-23T20:25:09.646Z,100809.45
2019-03-23T20:27:42.185Z,100797.59
2019-03-23T20:30:15.415Z,100808.44
2019-03-23T20:32:48.047Z,100807.67
2019-03-23T20:35:20.661Z,100805.66
2019-03-23T20:37:53.695Z,100800.44
2019-03-23T20:40:26.334Z,100795.58
2019-03-23T20:42:58.924Z,100797.22
2019-03-23T20:45:32.464Z,100795.85
2019-03-23T20:48:05.344Z,100793.22
2019-03-23T20:50:39.534Z,100794.09
2019-03-23T20:53:13.956Z,100793.23
2019-03-23T20:55:46.626Z,100793.23
2019-03-23T20:58:20.175Z,100790.69
2019-03-23T21:00:55.315Z,100785.03
2019-03-23T21:03:27.875Z,100780.25
2019-03-23T21:06:00.823Z,100775.03
2019-03-23T21:08:34.235Z,100786.26
2019-03-23T21:11:07.264Z,100780.92
2019-03-23T21:13:40.046Z,100781.26
2019-03-23T21:16:12.624Z,100774.59
2019-03-23T21:18:45.454Z,100775.38
2019-03-23T21:21:18.204Z,100770.95
2019-03-23T21:23:52.177Z,100766.09
2019-03-23T21:26:26.024Z,100766.09
2019-03-23T21:28:58.754Z,100757.86
2019-03-23T21:31:31.355Z,100759.63
2019-03-23T21:34:03.970Z,100759.25
2019-03-23T21:36:36.714Z,100753.59
2019-03-23T21:39:09.424Z,100755.31
2019-03-23T21:41:42.027Z,100753.59
2019-03-23T21:44:14.754Z,100751.36
2019-03-23T21:46:47.475Z,100753.08
2019-03-23T21:49:20.376Z,100753.08
2019-03-23T21:51:53.134Z,100749.10
2019-03-23T21:54:26.003Z,100741.67
2019-03-23T21:56:58.954Z,100735.93
2019-03-23T21:59:32.456Z,100733.79
2019-03-23T22:02:07.117Z,100741.65
2019-03-23T22:04:40.662Z,100736.52
2019-03-23T22:07:15.343Z,100734.08
2019-03-23T22:09:48.285Z,100735.17
2019-03-23T22:12:21.084Z,100729.80
2019-03-23T22:14:53.744Z,100726.57
2019-03-23T22:17:26.644Z,100721.05
2019-03-23T22:19:59.534Z,100729.02
2019-03-23T22:22:32.544Z,100728.80
2019-03-23T22:25:05.534Z,100724.19
2019-03-23T22:27:38.634Z,100723.22
2019-03-23T22:30:12.667Z,100720.08
2019-03-23T22:32:45.344Z,100720.62
2019-03-23T22:35:18.206Z,100716.72
2019-03-23T22:37:51.125Z,100723.21
2019-03-23T22:40:23.607Z,100725.75
2019-03-23T22:42:56.284Z,100734.09
2019-03-23T22:45:29.063Z,100736.59
2019-03-23T22:48:01.782Z,100742.47
2019-03-23T22:50:34.404Z,100750.62
2019-03-23T22:53:07.084Z,100752.16
2019-03-23T22:55:39.693Z,100743.91
2019-03-23T22:58:12.414Z,100744.34
2019-03-23T23:00:46.257Z,100744.72
2019-03-23T23:03:19.192Z,100745.55
2019-03-23T23:05:52.274Z,100756.94
2019-03-23T23:08:24.964Z,100759.36
2019-03-23T23:10:57.663Z,100753.20
2019-03-23T23:13:30.206Z,100754.45
2019-03-23T23:16:03.312Z,100760.92
2019-03-23T23:18:36.048Z,100764.71
2019-03-23T23:21:08.774Z,100761.53
2019-03-23T23:23:41.683Z,100761.06
2019-03-23T23:26:15.032Z,100765.83
2019-03-23T23:28:47.694Z,100762.78
2019-03-23T23:31:20.434Z,100756.68
2019-03-23T23:33:53.333Z,100760.20
2019-03-23T23:36:26.023Z,100758.11
2019-03-23T23:38:58.906Z,100756.44
2019-03-23T23:41:31.793Z,100759.14
2019-03-23T23:44:04.807Z,100765.40
2019-03-23T23:46:37.423Z,100762.69
2019-03-23T23:49:10.096Z,100759.11
2019-03-23T23:51:50.233Z,100764.52
2019-03-23T23:54:18.294Z,100752.87
2019-03-23T23:56:52.220Z,100753.81
2019-03-23T23:59:27.686Z,100751.25
